AAL82 KMEM-KATL
Flight info
| Callsign | AAL82 |
|---|---|
| Flight time | 0h 55m |
| Altitude | 33000 |
| Route | BBKNG7 KERMI HUTCC KNSAW RUSSA GLAVN2 |
| Aircraft | MD82/M-SDFGIRWY/S |
Departure
| Time | 2026-05-03 23:57 |
|---|---|
| Airport | Memphis International Airport (KMEM) |
Arrival
| Time | 2026-05-04 00:53 |
|---|---|
| Airport | Hartsfield Jackson Atlanta International Airport (KATL) |
| Time | Latitude | Longitude | Altitude | Speed | Heading |
|---|---|---|---|---|---|
| 2026-05-03 23:30 | 35.04116 | -89.98117 | 328 ft | 0 kts | 47° |
| 2026-05-03 23:45 | 35.04108 | -89.98128 | 327 ft | 3 kts | 47° |
| 2026-05-03 23:45 | 35.04094 | -89.98146 | 326 ft | 3 kts | 47° |
| 2026-05-03 23:45 | 35.04080 | -89.98164 | 327 ft | 3 kts | 47° |
| 2026-05-03 23:45 | 35.04066 | -89.98183 | 326 ft | 3 kts | 47° |
| 2026-05-03 23:46 | 35.04052 | -89.98201 | 326 ft | 3 kts | 47° |
| 2026-05-03 23:46 | 35.04038 | -89.98219 | 327 ft | 3 kts | 47° |
| 2026-05-03 23:46 | 35.04024 | -89.98238 | 328 ft | 3 kts | 47° |
| 2026-05-03 23:46 | 35.04014 | -89.98259 | 327 ft | 3 kts | 86° |
| 2026-05-03 23:47 | 35.04014 | -89.98261 | 327 ft | 0 kts | 86° |
| 2026-05-03 23:51 | 35.04014 | -89.98257 | 327 ft | 1 kts | 86° |
| 2026-05-03 23:51 | 35.04016 | -89.98228 | 326 ft | 6 kts | 89° |
| 2026-05-03 23:51 | 35.04011 | -89.98155 | 328 ft | 10 kts | 97° |
| 2026-05-03 23:52 | 35.04003 | -89.98067 | 328 ft | 11 kts | 97° |
| 2026-05-03 23:52 | 35.03994 | -89.97974 | 329 ft | 11 kts | 96° |
| 2026-05-03 23:52 | 35.03989 | -89.97882 | 331 ft | 12 kts | 93° |
| 2026-05-03 23:52 | 35.03985 | -89.97793 | 327 ft | 10 kts | 88° |
| 2026-05-03 23:53 | 35.04027 | -89.97739 | 328 ft | 10 kts | 4° |
| 2026-05-03 23:53 | 35.04096 | -89.97739 | 328 ft | 10 kts | 360° |
| 2026-05-03 23:53 | 35.04168 | -89.97740 | 327 ft | 11 kts | 359° |
| 2026-05-03 23:53 | 35.04264 | -89.97742 | 328 ft | 18 kts | 358° |
| 2026-05-03 23:54 | 35.04420 | -89.97746 | 328 ft | 25 kts | 359° |
| 2026-05-03 23:54 | 35.04596 | -89.97751 | 328 ft | 25 kts | 359° |
| 2026-05-03 23:54 | 35.04773 | -89.97755 | 326 ft | 25 kts | 359° |
| 2026-05-03 23:54 | 35.04948 | -89.97758 | 327 ft | 25 kts | 359° |
| 2026-05-03 23:55 | 35.05123 | -89.97762 | 327 ft | 25 kts | 359° |
| 2026-05-03 23:55 | 35.05260 | -89.97764 | 328 ft | 11 kts | 359° |
| 2026-05-03 23:55 | 35.05339 | -89.97776 | 328 ft | 11 kts | 349° |
| 2026-05-03 23:55 | 35.05408 | -89.97775 | 328 ft | 8 kts | 17° |
| 2026-05-03 23:56 | 35.05445 | -89.97730 | 325 ft | 9 kts | 71° |
| 2026-05-03 23:56 | 35.05449 | -89.97659 | 325 ft | 7 kts | 94° |
| 2026-05-03 23:56 | 35.05418 | -89.97614 | 326 ft | 9 kts | 166° |
| 2026-05-03 23:56 | 35.05329 | -89.97615 | 325 ft | 21 kts | 180° |
| 2026-05-03 23:57 | 35.04995 | -89.97607 | 323 ft | 79 kts | 179° |
| 2026-05-03 23:57 | 35.04231 | -89.97594 | 325 ft | 138 kts | 179° |
| 2026-05-03 23:57 | 35.03111 | -89.97556 | 377 ft | 179 kts | 178° |
| 2026-05-03 23:57 | 35.01881 | -89.97449 | 1239 ft | 168 kts | 175° |
| 2026-05-03 23:58 | 35.00883 | -89.97336 | 1847 ft | 175 kts | 176° |
| 2026-05-03 23:58 | 34.99639 | -89.97235 | 2350 ft | 183 kts | 178° |
| 2026-05-03 23:58 | 34.98342 | -89.97160 | 2844 ft | 185 kts | 176° |
| 2026-05-03 23:58 | 34.97092 | -89.96749 | 3309 ft | 196 kts | 161° |
| 2026-05-03 23:59 | 34.95768 | -89.96116 | 3688 ft | 212 kts | 160° |
| 2026-05-03 23:59 | 34.94356 | -89.95424 | 4072 ft | 226 kts | 157° |
| 2026-05-03 23:59 | 34.93096 | -89.94202 | 4442 ft | 243 kts | 123° |
| 2026-05-03 23:59 | 34.92538 | -89.92212 | 4787 ft | 258 kts | 93° |
| 2026-05-04 00:00 | 34.92479 | -89.89961 | 5092 ft | 273 kts | 88° |
| 2026-05-04 00:00 | 34.92467 | -89.87598 | 5427 ft | 285 kts | 88° |
| 2026-05-04 00:00 | 34.92459 | -89.85153 | 5952 ft | 289 kts | 88° |
| 2026-05-04 00:00 | 34.92446 | -89.82704 | 6556 ft | 291 kts | 89° |
| 2026-05-04 00:01 | 34.92409 | -89.80220 | 7227 ft | 292 kts | 90° |
| 2026-05-04 00:01 | 34.92348 | -89.77741 | 7943 ft | 293 kts | 90° |
| 2026-05-04 00:01 | 34.92262 | -89.75262 | 8597 ft | 294 kts | 91° |
| 2026-05-04 00:01 | 34.92155 | -89.72769 | 9283 ft | 295 kts | 91° |
| 2026-05-04 00:02 | 34.92034 | -89.70280 | 9906 ft | 298 kts | 92° |
| 2026-05-04 00:02 | 34.91903 | -89.67761 | 10507 ft | 300 kts | 92° |
| 2026-05-04 00:02 | 34.91766 | -89.65182 | 10881 ft | 311 kts | 92° |
| 2026-05-04 00:02 | 34.91666 | -89.62483 | 11069 ft | 327 kts | 89° |
| 2026-05-04 00:03 | 34.91634 | -89.59641 | 11240 ft | 343 kts | 88° |
| 2026-05-04 00:03 | 34.91630 | -89.56668 | 11421 ft | 358 kts | 88° |
| 2026-05-04 00:03 | 34.91634 | -89.53595 | 11813 ft | 365 kts | 88° |
| 2026-05-04 00:03 | 34.91637 | -89.50491 | 12394 ft | 367 kts | 88° |
| 2026-05-04 00:04 | 34.91636 | -89.47367 | 12963 ft | 369 kts | 88° |
| 2026-05-04 00:04 | 34.91632 | -89.44226 | 13480 ft | 372 kts | 88° |
| 2026-05-04 00:04 | 34.91622 | -89.41057 | 13999 ft | 376 kts | 88° |
| 2026-05-04 00:04 | 34.91611 | -89.37862 | 14450 ft | 379 kts | 88° |
| 2026-05-04 00:05 | 34.91597 | -89.34637 | 14887 ft | 383 kts | 88° |
| 2026-05-04 00:05 | 34.91584 | -89.31373 | 15314 ft | 386 kts | 88° |
| 2026-05-04 00:05 | 34.91571 | -89.28087 | 15682 ft | 392 kts | 88° |
| 2026-05-04 00:05 | 34.91560 | -89.24783 | 15847 ft | 395 kts | 88° |
| 2026-05-04 00:06 | 34.91518 | -89.21405 | 15935 ft | 394 kts | 92° |
| 2026-05-04 00:06 | 34.91113 | -89.18107 | 15977 ft | 394 kts | 99° |
| 2026-05-04 00:06 | 34.90524 | -89.14883 | 15993 ft | 394 kts | 101° |
| 2026-05-04 00:06 | 34.89911 | -89.11634 | 16030 ft | 394 kts | 101° |
| 2026-05-04 00:07 | 34.89298 | -89.08340 | 16302 ft | 401 kts | 101° |
| 2026-05-04 00:07 | 34.88686 | -89.05019 | 16879 ft | 401 kts | 100° |
| 2026-05-04 00:07 | 34.88087 | -89.01695 | 17378 ft | 403 kts | 99° |
| 2026-05-04 00:07 | 34.87497 | -88.98330 | 17808 ft | 407 kts | 99° |
| 2026-05-04 00:08 | 34.86915 | -88.94936 | 18222 ft | 411 kts | 99° |
| 2026-05-04 00:08 | 34.86334 | -88.91505 | 18641 ft | 414 kts | 99° |
| 2026-05-04 00:08 | 34.85753 | -88.88058 | 19062 ft | 416 kts | 99° |
| 2026-05-04 00:08 | 34.85169 | -88.84595 | 19492 ft | 419 kts | 99° |
| 2026-05-04 00:09 | 34.84581 | -88.81114 | 19888 ft | 423 kts | 99° |
| 2026-05-04 00:09 | 34.83984 | -88.77598 | 20301 ft | 425 kts | 99° |
| 2026-05-04 00:09 | 34.83382 | -88.74062 | 20725 ft | 428 kts | 99° |
| 2026-05-04 00:09 | 34.82780 | -88.70544 | 21128 ft | 431 kts | 99° |
| 2026-05-04 00:10 | 34.82167 | -88.66964 | 21504 ft | 435 kts | 99° |
| 2026-05-04 00:10 | 34.81546 | -88.63345 | 21929 ft | 437 kts | 100° |
| 2026-05-04 00:10 | 34.80899 | -88.59719 | 22334 ft | 440 kts | 100° |
| 2026-05-04 00:10 | 34.80230 | -88.56065 | 22707 ft | 443 kts | 100° |
| 2026-05-04 00:11 | 34.79561 | -88.52389 | 23065 ft | 447 kts | 100° |
| 2026-05-04 00:11 | 34.78900 | -88.48688 | 23469 ft | 449 kts | 100° |
| 2026-05-04 00:11 | 34.78246 | -88.44965 | 23816 ft | 452 kts | 100° |
| 2026-05-04 00:11 | 34.77595 | -88.41209 | 24086 ft | 456 kts | 100° |
| 2026-05-04 00:12 | 34.76942 | -88.37425 | 24406 ft | 458 kts | 100° |
| 2026-05-04 00:12 | 34.76289 | -88.33628 | 24764 ft | 460 kts | 99° |
| 2026-05-04 00:12 | 34.75631 | -88.29813 | 25062 ft | 462 kts | 99° |
| 2026-05-04 00:12 | 34.74968 | -88.25974 | 25351 ft | 466 kts | 99° |
| 2026-05-04 00:13 | 34.74301 | -88.22119 | 25647 ft | 468 kts | 99° |
| 2026-05-04 00:13 | 34.73626 | -88.18231 | 25970 ft | 470 kts | 99° |
| 2026-05-04 00:13 | 34.72960 | -88.14331 | 26276 ft | 472 kts | 98° |
| 2026-05-04 00:13 | 34.72367 | -88.10374 | 26546 ft | 475 kts | 97° |
| 2026-05-04 00:14 | 34.71835 | -88.06402 | 26837 ft | 477 kts | 96° |
| 2026-05-04 00:14 | 34.71326 | -88.02420 | 27212 ft | 477 kts | 96° |
| 2026-05-04 00:14 | 34.70815 | -87.98428 | 27502 ft | 479 kts | 96° |
| 2026-05-04 00:14 | 34.70291 | -87.94406 | 27775 ft | 482 kts | 97° |
| 2026-05-04 00:15 | 34.69760 | -87.90426 | 28053 ft | 485 kts | 97° |
| 2026-05-04 00:15 | 34.69210 | -87.86374 | 28336 ft | 487 kts | 97° |
| 2026-05-04 00:15 | 34.68645 | -87.82253 | 28660 ft | 488 kts | 97° |
| 2026-05-04 00:15 | 34.68093 | -87.78233 | 28904 ft | 489 kts | 97° |
| 2026-05-04 00:16 | 34.67534 | -87.74151 | 29017 ft | 492 kts | 97° |
| 2026-05-04 00:16 | 34.66971 | -87.70024 | 29072 ft | 499 kts | 97° |
| 2026-05-04 00:16 | 34.65821 | -87.61578 | 29094 ft | 513 kts | 97° |
| 2026-05-04 00:17 | 34.64602 | -87.52947 | 29100 ft | 522 kts | 97° |
| 2026-05-04 00:17 | 34.63387 | -87.44224 | 29102 ft | 524 kts | 97° |
| 2026-05-04 00:18 | 34.61939 | -87.35537 | 29105 ft | 525 kts | 101° |
| 2026-05-04 00:18 | 34.60280 | -87.26914 | 29107 ft | 522 kts | 101° |
| 2026-05-04 00:19 | 34.58659 | -87.18334 | 29120 ft | 521 kts | 101° |
| 2026-05-04 00:19 | 34.57095 | -87.09808 | 29118 ft | 521 kts | 101° |
| 2026-05-04 00:20 | 34.55590 | -87.01189 | 29116 ft | 522 kts | 100° |
| 2026-05-04 00:20 | 34.54091 | -86.92582 | 29126 ft | 522 kts | 103° |
| 2026-05-04 00:21 | 34.51978 | -86.84170 | 29122 ft | 522 kts | 107° |
| 2026-05-04 00:21 | 34.49696 | -86.75803 | 29118 ft | 522 kts | 107° |
| 2026-05-04 00:22 | 34.47470 | -86.67420 | 29121 ft | 522 kts | 107° |
| 2026-05-04 00:22 | 34.45286 | -86.59046 | 29119 ft | 522 kts | 106° |
| 2026-05-04 00:23 | 34.43105 | -86.50677 | 29122 ft | 521 kts | 107° |
| 2026-05-04 00:23 | 34.40915 | -86.42349 | 29117 ft | 518 kts | 107° |
| 2026-05-04 00:24 | 34.38727 | -86.34056 | 29121 ft | 517 kts | 107° |
| 2026-05-04 00:24 | 34.36555 | -86.25811 | 29123 ft | 518 kts | 107° |
| 2026-05-04 00:25 | 34.34361 | -86.17498 | 29125 ft | 518 kts | 107° |
| 2026-05-04 00:25 | 34.32172 | -86.09198 | 29112 ft | 517 kts | 107° |
| 2026-05-04 00:26 | 34.30014 | -86.00910 | 29110 ft | 516 kts | 107° |
| 2026-05-04 00:26 | 34.28231 | -85.94033 | 29109 ft | 516 kts | 107° |
| 2026-05-04 00:27 | 34.26079 | -85.85756 | 28967 ft | 510 kts | 107° |
| 2026-05-04 00:27 | 34.25028 | -85.81721 | 28274 ft | 499 kts | 107° |
| 2026-05-04 00:27 | 34.23989 | -85.77735 | 27437 ft | 493 kts | 107° |
| 2026-05-04 00:28 | 34.22968 | -85.73812 | 26663 ft | 488 kts | 107° |
| 2026-05-04 00:28 | 34.21952 | -85.69913 | 25886 ft | 483 kts | 107° |
| 2026-05-04 00:28 | 34.20947 | -85.66058 | 25127 ft | 479 kts | 107° |
| 2026-05-04 00:28 | 34.19937 | -85.62234 | 24379 ft | 475 kts | 107° |
| 2026-05-04 00:29 | 34.18927 | -85.58455 | 23623 ft | 471 kts | 107° |
| 2026-05-04 00:29 | 34.17926 | -85.54708 | 22806 ft | 466 kts | 107° |
| 2026-05-04 00:29 | 34.16940 | -85.50999 | 22045 ft | 461 kts | 107° |
| 2026-05-04 00:29 | 34.15972 | -85.47335 | 21332 ft | 455 kts | 107° |
| 2026-05-04 00:30 | 34.15020 | -85.43709 | 20654 ft | 449 kts | 107° |
| 2026-05-04 00:30 | 34.14085 | -85.40136 | 19969 ft | 444 kts | 107° |
| 2026-05-04 00:30 | 34.13160 | -85.36600 | 19263 ft | 440 kts | 107° |
| 2026-05-04 00:30 | 34.12244 | -85.33089 | 18537 ft | 437 kts | 107° |
| 2026-05-04 00:31 | 34.11337 | -85.29597 | 17728 ft | 435 kts | 107° |
| 2026-05-04 00:31 | 34.10448 | -85.26169 | 16934 ft | 431 kts | 107° |
| 2026-05-04 00:31 | 34.09560 | -85.22741 | 16203 ft | 427 kts | 107° |
| 2026-05-04 00:31 | 34.08677 | -85.19342 | 15490 ft | 422 kts | 107° |
| 2026-05-04 00:32 | 34.07802 | -85.15972 | 14794 ft | 418 kts | 107° |
| 2026-05-04 00:32 | 34.06941 | -85.12661 | 14376 ft | 406 kts | 107° |
| 2026-05-04 00:32 | 34.06127 | -85.09530 | 14181 ft | 389 kts | 106° |
| 2026-05-04 00:32 | 34.05299 | -85.06521 | 14083 ft | 370 kts | 113° |
| 2026-05-04 00:33 | 34.03933 | -85.04000 | 13994 ft | 352 kts | 134° |
| 2026-05-04 00:33 | 34.00456 | -85.00194 | 13628 ft | 325 kts | 140° |
| 2026-05-04 00:33 | 33.98763 | -84.98475 | 13476 ft | 313 kts | 141° |
| 2026-05-04 00:34 | 33.97090 | -84.96805 | 13355 ft | 315 kts | 141° |
| 2026-05-04 00:34 | 33.95384 | -84.95110 | 13249 ft | 319 kts | 141° |
| 2026-05-04 00:34 | 33.93674 | -84.93397 | 13138 ft | 320 kts | 141° |
| 2026-05-04 00:34 | 33.91970 | -84.91670 | 13020 ft | 321 kts | 140° |
| 2026-05-04 00:35 | 33.90265 | -84.89933 | 12897 ft | 321 kts | 140° |
| 2026-05-04 00:35 | 33.88571 | -84.88188 | 12765 ft | 320 kts | 140° |
| 2026-05-04 00:35 | 33.86882 | -84.86438 | 12649 ft | 320 kts | 140° |
| 2026-05-04 00:35 | 33.85205 | -84.84693 | 12497 ft | 317 kts | 140° |
| 2026-05-04 00:36 | 33.83553 | -84.82972 | 12257 ft | 312 kts | 140° |
| 2026-05-04 00:36 | 33.81930 | -84.81282 | 12001 ft | 306 kts | 140° |
| 2026-05-04 00:36 | 33.80330 | -84.79621 | 11750 ft | 302 kts | 140° |
| 2026-05-04 00:36 | 33.78746 | -84.77977 | 11504 ft | 300 kts | 140° |
| 2026-05-04 00:37 | 33.77171 | -84.76346 | 11253 ft | 298 kts | 139° |
| 2026-05-04 00:37 | 33.75598 | -84.74721 | 11016 ft | 297 kts | 139° |
| 2026-05-04 00:37 | 33.74089 | -84.73035 | 10766 ft | 296 kts | 127° |
| 2026-05-04 00:37 | 33.73195 | -84.70852 | 10537 ft | 291 kts | 98° |
| 2026-05-04 00:38 | 33.73047 | -84.68445 | 10308 ft | 289 kts | 87° |
| 2026-05-04 00:38 | 33.73067 | -84.66068 | 10075 ft | 288 kts | 86° |
| 2026-05-04 00:38 | 33.73108 | -84.63631 | 9808 ft | 288 kts | 86° |
| 2026-05-04 00:38 | 33.73164 | -84.61268 | 9539 ft | 286 kts | 85° |
| 2026-05-04 00:39 | 33.73229 | -84.58886 | 9285 ft | 285 kts | 86° |
| 2026-05-04 00:39 | 33.73281 | -84.56517 | 9038 ft | 283 kts | 86° |
| 2026-05-04 00:39 | 33.73316 | -84.54155 | 8771 ft | 281 kts | 87° |
| 2026-05-04 00:39 | 33.73339 | -84.51809 | 8518 ft | 280 kts | 88° |
| 2026-05-04 00:40 | 33.73352 | -84.49474 | 8269 ft | 279 kts | 88° |
| 2026-05-04 00:40 | 33.73356 | -84.47150 | 8020 ft | 278 kts | 88° |
| 2026-05-04 00:40 | 33.73355 | -84.44837 | 7772 ft | 276 kts | 88° |
| 2026-05-04 00:40 | 33.73351 | -84.42532 | 7513 ft | 275 kts | 88° |
| 2026-05-04 00:41 | 33.73348 | -84.40244 | 7273 ft | 273 kts | 89° |
| 2026-05-04 00:41 | 33.73342 | -84.37967 | 7033 ft | 272 kts | 89° |
| 2026-05-04 00:41 | 33.73336 | -84.35704 | 6786 ft | 271 kts | 89° |
| 2026-05-04 00:41 | 33.73332 | -84.33456 | 6544 ft | 267 kts | 89° |
| 2026-05-04 00:42 | 33.73326 | -84.31244 | 6293 ft | 262 kts | 89° |
| 2026-05-04 00:42 | 33.73323 | -84.29081 | 6030 ft | 257 kts | 89° |
| 2026-05-04 00:42 | 33.73320 | -84.26937 | 5770 ft | 255 kts | 89° |
| 2026-05-04 00:42 | 33.73320 | -84.24802 | 5524 ft | 255 kts | 89° |
| 2026-05-04 00:43 | 33.73321 | -84.22706 | 5278 ft | 254 kts | 89° |
| 2026-05-04 00:43 | 33.73323 | -84.20584 | 5035 ft | 254 kts | 89° |
| 2026-05-04 00:43 | 33.73324 | -84.18484 | 4786 ft | 249 kts | 90° |
| 2026-05-04 00:43 | 33.73325 | -84.16403 | 4525 ft | 242 kts | 90° |
| 2026-05-04 00:44 | 33.73323 | -84.14433 | 4271 ft | 230 kts | 90° |
| 2026-05-04 00:44 | 33.73322 | -84.12566 | 4106 ft | 216 kts | 90° |
| 2026-05-04 00:44 | 33.73321 | -84.10840 | 4036 ft | 202 kts | 90° |
| 2026-05-04 00:44 | 33.73322 | -84.09176 | 4010 ft | 197 kts | 90° |
| 2026-05-04 00:45 | 33.73220 | -84.07543 | 3986 ft | 197 kts | 112° |
| 2026-05-04 00:45 | 33.72311 | -84.06409 | 3979 ft | 193 kts | 166° |
| 2026-05-04 00:45 | 33.71036 | -84.06592 | 4011 ft | 189 kts | 216° |
| 2026-05-04 00:45 | 33.70012 | -84.07538 | 4037 ft | 184 kts | 221° |
| 2026-05-04 00:46 | 33.69021 | -84.08498 | 3994 ft | 181 kts | 221° |
| 2026-05-04 00:46 | 33.68061 | -84.09460 | 3985 ft | 179 kts | 223° |
| 2026-05-04 00:46 | 33.67129 | -84.10442 | 3988 ft | 178 kts | 224° |
| 2026-05-04 00:46 | 33.66218 | -84.11442 | 3985 ft | 177 kts | 229° |
| 2026-05-04 00:47 | 33.65509 | -84.12633 | 3984 ft | 176 kts | 244° |
| 2026-05-04 00:47 | 33.65191 | -84.14035 | 3993 ft | 176 kts | 266° |
| 2026-05-04 00:47 | 33.65040 | -84.15494 | 3984 ft | 176 kts | 261° |
| 2026-05-04 00:47 | 33.64877 | -84.16947 | 3980 ft | 175 kts | 269° |
| 2026-05-04 00:48 | 33.64913 | -84.18414 | 3980 ft | 176 kts | 275° |
| 2026-05-04 00:48 | 33.64988 | -84.19880 | 3999 ft | 176 kts | 272° |
| 2026-05-04 00:48 | 33.64981 | -84.21350 | 4001 ft | 176 kts | 269° |
| 2026-05-04 00:48 | 33.64960 | -84.22805 | 4000 ft | 169 kts | 270° |
| 2026-05-04 00:49 | 33.64954 | -84.24220 | 3765 ft | 170 kts | 270° |
| 2026-05-04 00:49 | 33.64953 | -84.25622 | 3505 ft | 166 kts | 270° |
| 2026-05-04 00:49 | 33.64953 | -84.26992 | 3269 ft | 162 kts | 270° |
| 2026-05-04 00:49 | 33.64953 | -84.28340 | 3053 ft | 161 kts | 270° |
| 2026-05-04 00:50 | 33.64953 | -84.29676 | 2848 ft | 160 kts | 271° |
| 2026-05-04 00:50 | 33.64952 | -84.30938 | 2747 ft | 147 kts | 271° |
| 2026-05-04 00:50 | 33.64953 | -84.32156 | 2550 ft | 143 kts | 271° |
| 2026-05-04 00:50 | 33.64953 | -84.33359 | 2322 ft | 143 kts | 271° |
| 2026-05-04 00:51 | 33.64954 | -84.34555 | 2085 ft | 143 kts | 271° |
| 2026-05-04 00:51 | 33.64953 | -84.35745 | 1877 ft | 142 kts | 271° |
| 2026-05-04 00:51 | 33.64952 | -84.36929 | 1653 ft | 142 kts | 271° |
| 2026-05-04 00:51 | 33.64973 | -84.38103 | 1473 ft | 139 kts | 270° |
| 2026-05-04 00:52 | 33.64961 | -84.39271 | 1289 ft | 142 kts | 269° |
| 2026-05-04 00:52 | 33.64947 | -84.40444 | 1151 ft | 138 kts | 269° |
| 2026-05-04 00:52 | 33.64948 | -84.41577 | 1007 ft | 128 kts | 270° |
| 2026-05-04 00:52 | 33.64952 | -84.42399 | 1007 ft | 59 kts | 270° |
| 2026-05-04 00:53 | 33.64956 | -84.42765 | 1007 ft | 41 kts | 271° |
| 2026-05-04 00:53 | 33.64947 | -84.43020 | 1007 ft | 25 kts | 261° |
| 2026-05-04 00:53 | 33.64906 | -84.43216 | 1007 ft | 24 kts | 249° |
| 2026-05-04 00:53 | 33.64849 | -84.43398 | 1007 ft | 23 kts | 261° |
| 2026-05-04 00:54 | 33.64845 | -84.43568 | 1007 ft | 17 kts | 269° |
| 2026-05-04 00:54 | 33.64844 | -84.43684 | 1007 ft | 12 kts | 270° |
| 2026-05-04 00:54 | 33.64832 | -84.43786 | 1007 ft | 13 kts | 245° |
| 2026-05-04 00:54 | 33.64789 | -84.43825 | 1007 ft | 0 kts | 192° |
| 2026-05-04 00:55 | 33.64786 | -84.43826 | 1007 ft | 1 kts | 186° |
| 2026-05-04 00:55 | 33.64778 | -84.43825 | 1007 ft | 2 kts | 174° |
| 2026-05-04 00:55 | 33.64737 | -84.43820 | 1007 ft | 11 kts | 174° |
| 2026-05-04 00:55 | 33.64648 | -84.43815 | 1006 ft | 13 kts | 179° |
| 2026-05-04 00:56 | 33.64560 | -84.43827 | 1006 ft | 11 kts | 201° |
| 2026-05-04 00:56 | 33.64514 | -84.43884 | 1007 ft | 10 kts | 250° |
| 2026-05-04 00:56 | 33.64501 | -84.43964 | 1007 ft | 10 kts | 261° |
| 2026-05-04 00:56 | 33.64485 | -84.44046 | 1007 ft | 10 kts | 244° |
| 2026-05-04 00:57 | 33.64433 | -84.44102 | 1007 ft | 10 kts | 203° |
| 2026-05-04 00:57 | 33.64359 | -84.44115 | 1007 ft | 11 kts | 181° |
| 2026-05-04 00:57 | 33.64300 | -84.44117 | 1007 ft | 4 kts | 181° |
| 2026-05-04 00:57 | 33.64274 | -84.44131 | 1007 ft | 4 kts | 229° |
| 2026-05-04 00:58 | 33.64263 | -84.44164 | 1007 ft | 4 kts | 259° |
| 2026-05-04 00:58 | 33.64262 | -84.44183 | 1007 ft | 1 kts | 269° |
| 2026-05-04 00:58 | 33.64262 | -84.44185 | 1007 ft | 0 kts | 269° |